sensor_id;sensor_type;location;lat;lon;timestamp;pressure;altitude;pressure_sealevel;temperature;humidity
44934;BME280;30667;43.614;1.442;2023-03-14T00:01:13;99576.81;;;10.80;100.00
44934;BME280;30667;43.614;1.442;2023-03-14T00:03:39;99582.25;;;10.80;100.00
44934;BME280;30667;43.614;1.442;2023-03-14T00:06:05;99588.22;;;10.77;100.00
44934;BME280;30667;43.614;1.442;2023-03-14T00:08:30;99595.53;;;10.77;100.00
44934;BME280;30667;43.614;1.442;2023-03-14T00:10:56;99587.94;;;10.79;100.00
44934;BME280;30667;43.614;1.442;2023-03-14T00:13:23;99577.41;;;10.77;100.00
44934;BME280;30667;43.614;1.442;2023-03-14T00:15:49;99572.84;;;10.72;100.00
44934;BME280;30667;43.614;1.442;2023-03-14T00:18:14;99570.44;;;10.71;100.00
44934;BME280;30667;43.614;1.442;2023-03-14T00:20:40;99579.34;;;10.71;100.00
44934;BME280;30667;43.614;1.442;2023-03-14T00:23:06;99580.22;;;10.67;100.00
44934;BME280;30667;43.614;1.442;2023-03-14T00:25:31;99573.22;;;10.66;100.00
44934;BME280;30667;43.614;1.442;2023-03-14T00:27:57;99572.38;;;10.65;100.00
44934;BME280;30667;43.614;1.442;2023-03-14T00:30:22;99574.00;;;10.66;100.00
44934;BME280;30667;43.614;1.442;2023-03-14T00:32:48;99575.38;;;10.64;100.00
44934;BME280;30667;43.614;1.442;2023-03-14T00:35:13;99581.56;;;10.69;100.00
44934;BME280;30667;43.614;1.442;2023-03-14T00:37:39;99576.88;;;10.75;100.00
44934;BME280;30667;43.614;1.442;2023-03-14T00:40:05;99582.25;;;10.80;100.00
44934;BME280;30667;43.614;1.442;2023-03-14T00:42:32;99585.44;;;10.82;100.00
44934;BME280;30667;43.614;1.442;2023-03-14T00:44:58;99581.34;;;10.85;100.00
44934;BME280;30667;43.614;1.442;2023-03-14T00:47:23;99573.84;;;10.82;100.00
44934;BME280;30667;43.614;1.442;2023-03-14T00:49:49;99564.97;;;10.76;100.00
44934;BME280;30667;43.614;1.442;2023-03-14T00:52:14;99570.38;;;10.76;100.00
44934;BME280;30667;43.614;1.442;2023-03-14T00:54:39;99576.34;;;10.73;100.00
44934;BME280;30667;43.614;1.442;2023-03-14T00:57:05;99580.16;;;10.72;100.00
44934;BME280;30667;43.614;1.442;2023-03-14T00:59:30;99574.00;;;10.66;100.00
44934;BME280;30667;43.614;1.442;2023-03-14T01:01:56;99570.72;;;10.69;100.00
44934;BME280;30667;43.614;1.442;2023-03-14T01:04:21;99573.50;;;10.64;100.00
44934;BME280;30667;43.614;1.442;2023-03-14T01:06:47;99576.50;;;10.63;100.00
44934;BME280;30667;43.614;1.442;2023-03-14T01:09:12;99574.06;;;10.61;100.00
44934;BME280;30667;43.614;1.442;2023-03-14T01:11:37;99578.94;;;10.59;100.00
44934;BME280;30667;43.614;1.442;2023-03-14T01:14:03;99571.66;;;10.60;100.00
44934;BME280;30667;43.614;1.442;2023-03-14T01:16:33;99575.16;;;10.60;100.00
44934;BME280;30667;43.614;1.442;2023-03-14T01:18:59;99570.53;;;10.61;100.00
44934;BME280;30667;43.614;1.442;2023-03-14T01:21:27;99569.19;;;10.63;100.00
44934;BME280;30667;43.614;1.442;2023-03-14T01:23:55;99575.09;;;10.65;100.00
44934;BME280;30667;43.614;1.442;2023-03-14T01:26:22;99574.00;;;10.66;100.00
44934;BME280;30667;43.614;1.442;2023-03-14T01:28:50;99574.59;;;10.63;100.00
44934;BME280;30667;43.614;1.442;2023-03-14T01:31:17;99566.69;;;10.67;100.00
44934;BME280;30667;43.614;1.442;2023-03-14T01:33:42;99563.47;;;10.65;100.00
44934;BME280;30667;43.614;1.442;2023-03-14T01:36:09;99562.13;;;10.62;100.00
44934;BME280;30667;43.614;1.442;2023-03-14T01:38:36;99557.56;;;10.63;100.00
44934;BME280;30667;43.614;1.442;2023-03-14T01:41:02;99553.38;;;10.70;100.00
44934;BME280;30667;43.614;1.442;2023-03-14T01:43:28;99584.94;;;10.80;100.00
44934;BME280;30667;43.614;1.442;2023-03-14T01:51:25;99573.06;;;11.19;100.00
44934;BME280;30667;43.614;1.442;2023-03-14T01:53:59;99571.31;;;11.29;100.00
44934;BME280;30667;43.614;1.442;2023-03-14T01:56:26;99562.22;;;11.38;100.00
44934;BME280;30667;43.614;1.442;2023-03-14T01:58:52;99557.88;;;11.37;100.00
44934;BME280;30667;43.614;1.442;2023-03-14T02:01:20;99558.25;;;11.31;100.00
44934;BME280;30667;43.614;1.442;2023-03-14T02:03:51;99567.78;;;11.28;100.00
44934;BME280;30667;43.614;1.442;2023-03-14T02:06:23;99571.81;;;11.31;100.00
44934;BME280;30667;43.614;1.442;2023-03-14T02:08:50;99559.38;;;11.30;100.00
44934;BME280;30667;43.614;1.442;2023-03-14T02:11:17;99550.13;;;11.31;100.00
44934;BME280;30667;43.614;1.442;2023-03-14T02:13:43;99554.97;;;11.34;100.00
44934;BME280;30667;43.614;1.442;2023-03-14T02:16:09;99551.66;;;11.37;100.00
44934;BME280;30667;43.614;1.442;2023-03-14T02:18:35;99550.00;;;11.41;100.00
44934;BME280;30667;43.614;1.442;2023-03-14T02:21:29;99544.28;;;11.42;100.00
44934;BME280;30667;43.614;1.442;2023-03-14T02:27:00;99533.22;;;11.39;100.00
44934;BME280;30667;43.614;1.442;2023-03-14T02:29:26;99547.78;;;11.43;100.00
44934;BME280;30667;43.614;1.442;2023-03-14T02:31:53;99530.75;;;11.42;100.00
44934;BME280;30667;43.614;1.442;2023-03-14T02:34:19;99527.22;;;11.42;100.00
44934;BME280;30667;43.614;1.442;2023-03-14T02:36:44;99546.47;;;11.40;100.00
44934;BME280;30667;43.614;1.442;2023-03-14T02:39:24;99542.56;;;11.47;100.00
44934;BME280;30667;43.614;1.442;2023-03-14T02:41:52;99544.69;;;11.50;100.00
44934;BME280;30667;43.614;1.442;2023-03-14T02:44:17;99543.69;;;11.45;100.00
44934;BME280;30667;43.614;1.442;2023-03-14T02:46:42;99543.09;;;11.49;100.00
44934;BME280;30667;43.614;1.442;2023-03-14T02:49:10;99564.03;;;11.43;100.00
44934;BME280;30667;43.614;1.442;2023-03-14T02:51:37;99593.63;;;11.39;100.00
44934;BME280;30667;43.614;1.442;2023-03-14T02:54:05;99576.41;;;11.30;100.00
44934;BME280;30667;43.614;1.442;2023-03-14T02:56:30;99586.00;;;11.22;100.00
44934;BME280;30667;43.614;1.442;2023-03-14T02:58:56;99578.31;;;11.11;100.00
44934;BME280;30667;43.614;1.442;2023-03-14T03:01:22;99567.22;;;11.12;100.00
44934;BME280;30667;43.614;1.442;2023-03-14T03:03:48;99563.97;;;11.10;100.00
44934;BME280;30667;43.614;1.442;2023-03-14T03:06:13;99567.25;;;11.07;100.00
44934;BME280;30667;43.614;1.442;2023-03-14T03:08:40;99580.00;;;11.06;100.00
44934;BME280;30667;43.614;1.442;2023-03-14T03:11:06;99554.09;;;11.00;100.00
44934;BME280;30667;43.614;1.442;2023-03-14T03:13:31;99555.91;;;11.05;100.00
44934;BME280;30667;43.614;1.442;2023-03-14T03:15:57;99556.97;;;11.09;100.00
44934;BME280;30667;43.614;1.442;2023-03-14T03:18:22;99567.25;;;11.07;100.00
44934;BME280;30667;43.614;1.442;2023-03-14T03:20:48;99561.53;;;11.08;100.00
44934;BME280;30667;43.614;1.442;2023-03-14T03:23:13;99568.88;;;11.08;100.00
44934;BME280;30667;43.614;1.442;2023-03-14T03:25:39;99576.34;;;11.16;100.00
44934;BME280;30667;43.614;1.442;2023-03-14T03:28:04;99590.38;;;11.18;100.00
44934;BME280;30667;43.614;1.442;2023-03-14T03:30:36;99589.59;;;11.18;100.00
44934;BME280;30667;43.614;1.442;2023-03-14T03:33:02;99585.78;;;11.19;100.00
44934;BME280;30667;43.614;1.442;2023-03-14T03:35:27;99584.97;;;11.18;100.00
44934;BME280;30667;43.614;1.442;2023-03-14T03:37:52;99608.16;;;11.24;100.00
44934;BME280;30667;43.614;1.442;2023-03-14T03:40:18;99609.72;;;11.31;100.00
44934;BME280;30667;43.614;1.442;2023-03-14T03:42:43;99610.16;;;11.19;100.00
44934;BME280;30667;43.614;1.442;2023-03-14T03:45:09;99618.41;;;11.08;100.00
44934;BME280;30667;43.614;1.442;2023-03-14T03:47:34;99612.41;;;11.12;100.00
44934;BME280;30667;43.614;1.442;2023-03-14T03:50:00;99622.22;;;11.07;100.00
44934;BME280;30667;43.614;1.442;2023-03-14T03:52:25;99620.25;;;11.13;100.00
44934;BME280;30667;43.614;1.442;2023-03-14T03:54:51;99648.63;;;10.97;100.00
44934;BME280;30667;43.614;1.442;2023-03-14T03:57:16;99640.19;;;10.98;100.00
44934;BME280;30667;43.614;1.442;2023-03-14T03:59:41;99643.31;;;10.86;100.00
44934;BME280;30667;43.614;1.442;2023-03-14T04:02:07;99649.31;;;10.83;100.00
44934;BME280;30667;43.614;1.442;2023-03-14T04:04:33;99646.63;;;10.83;100.00
44934;BME280;30667;43.614;1.442;2023-03-14T04:06:58;99668.41;;;10.68;100.00
44934;BME280;30667;43.614;1.442;2023-03-14T04:09:23;99653.66;;;10.55;100.00
44934;BME280;30667;43.614;1.442;2023-03-14T04:11:49;99654.31;;;10.42;100.00
44934;BME280;30667;43.614;1.442;2023-03-14T04:14:14;99656.59;;;10.29;100.00
44934;BME280;30667;43.614;1.442;2023-03-14T04:16:40;99669.63;;;10.22;100.00
44934;BME280;30667;43.614;1.442;2023-03-14T04:19:06;99670.69;;;10.26;100.00
44934;BME280;30667;43.614;1.442;2023-03-14T04:21:31;99668.31;;;10.20;100.00
44934;BME280;30667;43.614;1.442;2023-03-14T04:23:57;99653.78;;;10.10;100.00
44934;BME280;30667;43.614;1.442;2023-03-14T04:26:22;99646.97;;;10.13;100.00
44934;BME280;30667;43.614;1.442;2023-03-14T04:28:47;99647.56;;;10.10;100.00
44934;BME280;30667;43.614;1.442;2023-03-14T04:31:17;99647.88;;;10.03;100.00
44934;BME280;30667;43.614;1.442;2023-03-14T04:33:43;99659.81;;;10.02;100.00
44934;BME280;30667;43.614;1.442;2023-03-14T04:36:09;99667.66;;;9.98;100.00
44934;BME280;30667;43.614;1.442;2023-03-14T04:38:34;99666.19;;;10.11;100.00
44934;BME280;30667;43.614;1.442;2023-03-14T04:41:00;99675.75;;;10.04;100.00
44934;BME280;30667;43.614;1.442;2023-03-14T04:43:26;99687.63;;;10.03;100.00
44934;BME280;30667;43.614;1.442;2023-03-14T04:45:55;99678.72;;;10.02;100.00
44934;BME280;30667;43.614;1.442;2023-03-14T04:48:22;99683.84;;;10.04;100.00
44934;BME280;30667;43.614;1.442;2023-03-14T04:50:48;99691.09;;;10.08;100.00
44934;BME280;30667;43.614;1.442;2023-03-14T04:53:14;99693.78;;;10.08;100.00
44934;BME280;30667;43.614;1.442;2023-03-14T04:55:40;99696.25;;;10.05;100.00
44934;BME280;30667;43.614;1.442;2023-03-14T04:58:06;99702.78;;;10.04;100.00
44934;BME280;30667;43.614;1.442;2023-03-14T05:00:32;99696.00;;;10.01;100.00
44934;BME280;30667;43.614;1.442;2023-03-14T05:02:57;99706.31;;;9.99;100.00
44934;BME280;30667;43.614;1.442;2023-03-14T05:05:23;99696.53;;;10.03;100.00
44934;BME280;30667;43.614;1.442;2023-03-14T05:07:49;99700.06;;;10.04;100.00
44934;BME280;30667;43.614;1.442;2023-03-14T05:10:14;99710.09;;;9.98;100.00
44934;BME280;30667;43.614;1.442;2023-03-14T05:12:40;99712.78;;;9.98;100.00
44934;BME280;30667;43.614;1.442;2023-03-14T05:15:06;99706.03;;;10.00;100.00
44934;BME280;30667;43.614;1.442;2023-03-14T05:17:34;99729.25;;;10.02;100.00
44934;BME280;30667;43.614;1.442;2023-03-14T05:20:00;99714.34;;;10.09;100.00
44934;BME280;30667;43.614;1.442;2023-03-14T05:22:26;99718.66;;;10.10;100.00
44934;BME280;30667;43.614;1.442;2023-03-14T05:24:51;99727.84;;;10.09;100.00
44934;BME280;30667;43.614;1.442;2023-03-14T05:27:18;99708.88;;;10.14;100.00
44934;BME280;30667;43.614;1.442;2023-03-14T05:29:43;99722.97;;;10.11;100.00
44934;BME280;30667;43.614;1.442;2023-03-14T05:32:09;99723.75;;;10.17;100.00
44934;BME280;30667;43.614;1.442;2023-03-14T05:34:34;99711.53;;;10.25;100.00
44934;BME280;30667;43.614;1.442;2023-03-14T05:37:00;99714.28;;;10.20;100.00
44934;BME280;30667;43.614;1.442;2023-03-14T05:39:25;99718.81;;;10.24;100.00
44934;BME280;30667;43.614;1.442;2023-03-14T05:41:50;99714.00;;;10.21;100.00
44934;BME280;30667;43.614;1.442;2023-03-14T05:44:16;99716.38;;;10.23;100.00
44934;BME280;30667;43.614;1.442;2023-03-14T05:46:42;99728.59;;;10.20;100.00
44934;BME280;30667;43.614;1.442;2023-03-14T05:49:07;99722.09;;;10.21;100.00
44934;BME280;30667;43.614;1.442;2023-03-14T05:51:32;99731.28;;;10.20;100.00
44934;BME280;30667;43.614;1.442;2023-03-14T05:53:58;99729.66;;;10.19;100.00
44934;BME280;30667;43.614;1.442;2023-03-14T05:56:23;99744.81;;;10.20;100.00
44934;BME280;30667;43.614;1.442;2023-03-14T05:58:49;99752.13;;;10.20;100.00
44934;BME280;30667;43.614;1.442;2023-03-14T06:01:14;99776.47;;;10.20;100.00
44934;BME280;30667;43.614;1.442;2023-03-14T06:03:39;99756.22;;;10.07;100.00
44934;BME280;30667;43.614;1.442;2023-03-14T06:06:05;99774.72;;;9.94;100.00
44934;BME280;30667;43.614;1.442;2023-03-14T06:08:31;99762.59;;;9.87;100.00
44934;BME280;30667;43.614;1.442;2023-03-14T06:10:57;99776.44;;;9.75;100.00
44934;BME280;30667;43.614;1.442;2023-03-14T06:13:22;99781.53;;;9.76;100.00
44934;BME280;30667;43.614;1.442;2023-03-14T06:15:48;99785.84;;;9.82;100.00
44934;BME280;30667;43.614;1.442;2023-03-14T06:18:13;99792.34;;;9.81;100.00
44934;BME280;30667;43.614;1.442;2023-03-14T06:20:39;99792.06;;;9.78;100.00
44934;BME280;30667;43.614;1.442;2023-03-14T06:23:05;99799.13;;;9.74;100.00
44934;BME280;30667;43.614;1.442;2023-03-14T06:25:32;99815.88;;;9.76;100.00
44934;BME280;30667;43.614;1.442;2023-03-14T06:27:58;99800.22;;;9.73;100.00
44934;BME280;30667;43.614;1.442;2023-03-14T06:30:23;99833.47;;;9.73;100.00
44934;BME280;30667;43.614;1.442;2023-03-14T06:32:49;99832.91;;;9.71;100.00
44934;BME280;30667;43.614;1.442;2023-03-14T06:35:14;99834.25;;;9.74;100.00
44934;BME280;30667;43.614;1.442;2023-03-14T06:37:39;99841.00;;;9.71;100.00
44934;BME280;30667;43.614;1.442;2023-03-14T06:40:05;99845.06;;;9.74;100.00
44934;BME280;30667;43.614;1.442;2023-03-14T06:42:32;99845.88;;;9.69;100.00
44934;BME280;30667;43.614;1.442;2023-03-14T06:44:58;99848.06;;;9.67;100.00
44934;BME280;30667;43.614;1.442;2023-03-14T06:47:23;99846.41;;;9.71;100.00
44934;BME280;30667;43.614;1.442;2023-03-14T06:49:48;99853.44;;;9.72;100.00
44934;BME280;30667;43.614;1.442;2023-03-14T06:52:14;99847.53;;;9.70;100.00
44934;BME280;30667;43.614;1.442;2023-03-14T06:54:39;99852.66;;;9.72;100.00
44934;BME280;30667;43.614;1.442;2023-03-14T06:57:05;99855.34;;;9.67;100.00
44934;BME280;30667;43.614;1.442;2023-03-14T06:59:30;99872.38;;;9.67;100.00
44934;BME280;30667;43.614;1.442;2023-03-14T07:01:55;99880.94;;;9.90;100.00
44934;BME280;30667;43.614;1.442;2023-03-14T07:04:21;99900.69;;;9.85;100.00
44934;BME280;30667;43.614;1.442;2023-03-14T07:06:46;99895.59;;;9.63;100.00
44934;BME280;30667;43.614;1.442;2023-03-14T07:09:13;99892.94;;;9.53;100.00
44934;BME280;30667;43.614;1.442;2023-03-14T07:11:39;99902.66;;;9.49;100.00
44934;BME280;30667;43.614;1.442;2023-03-14T07:14:05;99901.03;;;9.48;100.00
44934;BME280;30667;43.614;1.442;2023-03-14T07:16:30;99912.13;;;9.41;100.00
44934;BME280;30667;43.614;1.442;2023-03-14T07:19:01;99905.91;;;9.40;100.00
44934;BME280;30667;43.614;1.442;2023-03-14T07:21:27;99908.63;;;9.40;100.00
44934;BME280;30667;43.614;1.442;2023-03-14T07:23:52;99905.13;;;9.40;100.00
44934;BME280;30667;43.614;1.442;2023-03-14T07:26:18;99897.00;;;9.45;100.00
44934;BME280;30667;43.614;1.442;2023-03-14T07:28:43;99902.69;;;9.43;100.00
44934;BME280;30667;43.614;1.442;2023-03-14T07:31:09;99916.44;;;9.47;100.00
44934;BME280;30667;43.614;1.442;2023-03-14T07:33:34;99914.81;;;9.46;100.00
44934;BME280;30667;43.614;1.442;2023-03-14T07:36:00;99920.78;;;9.48;100.00
44934;BME280;30667;43.614;1.442;2023-03-14T07:38:27;99918.03;;;9.58;100.00
44934;BME280;30667;43.614;1.442;2023-03-14T07:41:00;99924.78;;;9.61;100.00
44934;BME280;30667;43.614;1.442;2023-03-14T07:43:26;99932.34;;;9.69;100.00
44934;BME280;30667;43.614;1.442;2023-03-14T07:45:51;99933.94;;;9.75;100.00
44934;BME280;30667;43.614;1.442;2023-03-14T07:48:17;99933.13;;;9.80;100.00
44934;BME280;30667;43.614;1.442;2023-03-14T07:50:42;99940.41;;;9.85;100.00
44934;BME280;30667;43.614;1.442;2023-03-14T07:53:08;99953.34;;;9.93;100.00
44934;BME280;30667;43.614;1.442;2023-03-14T07:55:33;99949.03;;;9.92;100.00
44934;BME280;30667;43.614;1.442;2023-03-14T07:57:59;99950.38;;;9.99;100.00
44934;BME280;30667;43.614;1.442;2023-03-14T08:00:24;99951.72;;;10.02;100.00
44934;BME280;30667;43.614;1.442;2023-03-14T08:02:50;99951.69;;;10.07;100.00
44934;BME280;30667;43.614;1.442;2023-03-14T08:05:15;99960.06;;;10.11;100.00
44934;BME280;30667;43.614;1.442;2023-03-14T08:07:41;99963.28;;;10.18;100.00
44934;BME280;30667;43.614;1.442;2023-03-14T08:10:07;99974.06;;;10.23;100.00
44934;BME280;30667;43.614;1.442;2023-03-14T08:12:33;99970.28;;;10.29;100.00
44934;BME280;30667;43.614;1.442;2023-03-14T08:14:58;99980.00;;;10.35;100.00
44934;BME280;30667;43.614;1.442;2023-03-14T08:17:24;99986.19;;;10.41;100.00
44934;BME280;30667;43.614;1.442;2023-03-14T08:19:50;99996.44;;;10.49;100.00
44934;BME280;30667;43.614;1.442;2023-03-14T08:22:15;100004.03;;;10.47;100.00
44934;BME280;30667;43.614;1.442;2023-03-14T08:24:41;99998.84;;;10.56;100.00
44934;BME280;30667;43.614;1.442;2023-03-14T08:27:07;100007.22;;;10.54;100.00
44934;BME280;30667;43.614;1.442;2023-03-14T08:29:32;100010.94;;;10.74;100.00
44934;BME280;30667;43.614;1.442;2023-03-14T08:31:58;100024.91;;;10.92;100.00
44934;BME280;30667;43.614;1.442;2023-03-14T08:34:23;100022.75;;;10.94;100.00
44934;BME280;30667;43.614;1.442;2023-03-14T08:36:48;100030.81;;;10.99;100.00
44934;BME280;30667;43.614;1.442;2023-03-14T08:39:14;100026.50;;;10.98;100.00
44934;BME280;30667;43.614;1.442;2023-03-14T08:41:39;100028.34;;;11.02;100.00
44934;BME280;30667;43.614;1.442;2023-03-14T08:44:10;100023.78;;;11.03;100.00
44934;BME280;30667;43.614;1.442;2023-03-14T08:46:38;100024.91;;;10.92;100.00
44934;BME280;30667;43.614;1.442;2023-03-14T08:49:04;100025.41;;;10.99;100.00
44934;BME280;30667;43.614;1.442;2023-03-14T08:51:29;100022.97;;;10.97;100.00
44934;BME280;30667;43.614;1.442;2023-03-14T08:53:55;100028.16;;;10.94;100.00
44934;BME280;30667;43.614;1.442;2023-03-14T08:56:20;100031.41;;;10.90;100.00
44934;BME280;30667;43.614;1.442;2023-03-14T08:58:46;100032.50;;;10.89;100.00
44934;BME280;30667;43.614;1.442;2023-03-14T09:01:11;100029.25;;;10.87;100.00
44934;BME280;30667;43.614;1.442;2023-03-14T09:03:37;100036.31;;;10.88;100.00
44934;BME280;30667;43.614;1.442;2023-03-14T09:06:08;100030.84;;;10.94;100.00
44934;BME280;30667;43.614;1.442;2023-03-14T09:08:34;100028.16;;;10.94;100.00
44934;BME280;30667;43.614;1.442;2023-03-14T09:11:00;100028.66;;;10.96;100.00
44934;BME280;30667;43.614;1.442;2023-03-14T09:13:26;100049.00;;;10.93;100.00
44934;BME280;30667;43.614;1.442;2023-03-14T09:15:52;100122.72;;;10.69;100.00
44934;BME280;30667;43.614;1.442;2023-03-14T09:18:18;100133.56;;;9.41;100.00
44934;BME280;30667;43.614;1.442;2023-03-14T09:20:43;100106.06;;;8.65;100.00
44934;BME280;30667;43.614;1.442;2023-03-14T09:23:09;100102.56;;;8.27;100.00
44934;BME280;30667;43.614;1.442;2023-03-14T09:25:34;100119.00;;;8.26;100.00
44934;BME280;30667;43.614;1.442;2023-03-14T09:28:00;100106.81;;;8.18;100.00
44934;BME280;30667;43.614;1.442;2023-03-14T09:30:25;100120.88;;;8.20;100.00
44934;BME280;30667;43.614;1.442;2023-03-14T09:32:51;100110.91;;;8.26;100.00
44934;BME280;30667;43.614;1.442;2023-03-14T09:35:19;100114.66;;;8.25;100.00
44934;BME280;30667;43.614;1.442;2023-03-14T09:37:47;100098.56;;;8.30;100.00
44934;BME280;30667;43.614;1.442;2023-03-14T09:40:23;100101.78;;;8.32;100.00
44934;BME280;30667;43.614;1.442;2023-03-14T09:42:53;100104.03;;;8.45;100.00
44934;BME280;30667;43.614;1.442;2023-03-14T09:45:26;100111.41;;;8.60;100.00
44934;BME280;30667;43.614;1.442;2023-03-14T09:47:53;100105.28;;;8.80;100.00
44934;BME280;30667;43.614;1.442;2023-03-14T09:50:21;100106.97;;;8.91;100.00
44934;BME280;30667;43.614;1.442;2023-03-14T09:52:50;100105.44;;;9.16;100.00
44934;BME280;30667;43.614;1.442;2023-03-14T09:55:22;100111.16;;;9.40;100.00
44934;BME280;30667;43.614;1.442;2023-03-14T09:57:56;100111.97;;;9.61;100.00
44934;BME280;30667;43.614;1.442;2023-03-14T10:00:26;100109.56;;;9.65;100.00
44934;BME280;30667;43.614;1.442;2023-03-14T10:05:42;100109.00;;;9.68;100.00
44934;BME280;30667;43.614;1.442;2023-03-14T10:08:12;100112.28;;;9.70;100.00
44934;BME280;30667;43.614;1.442;2023-03-14T10:10:38;100106.03;;;9.70;100.00
44934;BME280;30667;43.614;1.442;2023-03-14T10:15:35;100120.38;;;9.70;100.00
44934;BME280;30667;43.614;1.442;2023-03-14T10:18:03;100118.50;;;9.86;100.00
44934;BME280;30667;43.614;1.442;2023-03-14T10:20:37;100121.47;;;9.95;100.00
44934;BME280;30667;43.614;1.442;2023-03-14T10:23:19;100119.03;;;10.04;100.00
44934;BME280;30667;43.614;1.442;2023-03-14T10:28:33;100128.50;;;10.16;100.00
44934;BME280;30667;43.614;1.442;2023-03-14T10:30:59;100135.78;;;10.21;100.00
44934;BME280;30667;43.614;1.442;2023-03-14T10:33:28;100123.31;;;10.25;100.00
44934;BME280;30667;43.614;1.442;2023-03-14T10:35:57;100134.41;;;10.29;100.00
44934;BME280;30667;43.614;1.442;2023-03-14T10:38:44;100140.38;;;10.36;100.00
44934;BME280;30667;43.614;1.442;2023-03-14T10:41:27;100135.78;;;10.26;100.00
44934;BME280;30667;43.614;1.442;2023-03-14T10:44:07;100119.56;;;10.21;100.00
44934;BME280;30667;43.614;1.442;2023-03-14T10:46:41;100126.88;;;10.10;100.00
44934;BME280;30667;43.614;1.442;2023-03-14T10:49:26;100130.09;;;10.17;100.00
44934;BME280;30667;43.614;1.442;2023-03-14T10:51:55;100120.09;;;10.23;100.00
44934;BME280;30667;43.614;1.442;2023-03-14T10:54:22;100123.63;;;10.34;100.00
44934;BME280;30667;43.614;1.442;2023-03-14T10:57:01;100140.91;;;10.38;100.00
44934;BME280;30667;43.614;1.442;2023-03-14T10:59:36;100150.63;;;10.29;100.00
44934;BME280;30667;43.614;1.442;2023-03-14T11:02:20;100166.03;;;9.72;100.00
44934;BME280;30667;43.614;1.442;2023-03-14T11:18:59;100154.56;;;9.13;100.00
44934;BME280;30667;43.614;1.442;2023-03-14T11:24:31;100151.91;;;9.34;100.00
44934;BME280;30667;43.614;1.442;2023-03-14T11:27:17;100148.47;;;9.64;100.00
44934;BME280;30667;43.614;1.442;2023-03-14T11:30:13;100147.66;;;9.74;100.00
44934;BME280;30667;43.614;1.442;2023-03-14T11:32:47;100150.38;;;9.79;100.00
44934;BME280;30667;43.614;1.442;2023-03-14T11:35:26;100165.22;;;9.66;100.00
44934;BME280;30667;43.614;1.442;2023-03-14T11:38:16;100156.28;;;9.50;100.00
44934;BME280;30667;43.614;1.442;2023-03-14T11:40:44;100168.19;;;9.54;100.00
44934;BME280;30667;43.614;1.442;2023-03-14T11:43:15;100163.03;;;9.53;100.00
44934;BME280;30667;43.614;1.442;2023-03-14T11:45:43;100178.41;;;9.52;100.00
44934;BME280;30667;43.614;1.442;2023-03-14T11:50:57;100156.81;;;9.52;100.00
44934;BME280;30667;43.614;1.442;2023-03-14T11:53:43;100151.72;;;9.66;100.00
44934;BME280;30667;43.614;1.442;2023-03-14T11:56:52;100151.72;;;9.61;100.00
44934;BME280;30667;43.614;1.442;2023-03-14T11:59:17;100153.03;;;9.58;100.00
44934;BME280;30667;43.614;1.442;2023-03-14T12:01:52;100144.97;;;9.69;100.00
44934;BME280;30667;43.614;1.442;2023-03-14T12:10:16;100135.22;;;9.62;100.00
44934;BME280;30667;43.614;1.442;2023-03-14T12:12:42;100128.75;;;9.74;100.00
44934;BME280;30667;43.614;1.442;2023-03-14T12:15:18;100127.94;;;9.84;100.00
44934;BME280;30667;43.614;1.442;2023-03-14T12:17:44;100124.72;;;9.87;100.00
44934;BME280;30667;43.614;1.442;2023-03-14T12:20:18;100125.75;;;10.11;100.00
44934;BME280;30667;43.614;1.442;2023-03-14T12:22:50;100127.41;;;10.12;100.00
44934;BME280;30667;43.614;1.442;2023-03-14T12:25:26;100122.25;;;10.16;100.00
44934;BME280;30667;43.614;1.442;2023-03-14T12:41:11;100096.03;;;10.37;100.00
44934;BME280;30667;43.614;1.442;2023-03-14T12:43:39;100091.94;;;10.45;100.00
44934;BME280;30667;43.614;1.442;2023-03-14T12:46:09;100102.72;;;10.60;100.00
44934;BME280;30667;43.614;1.442;2023-03-14T12:48:39;100092.16;;;10.64;100.00
44934;BME280;30667;43.614;1.442;2023-03-14T12:51:13;100094.84;;;10.74;100.00
44934;BME280;30667;43.614;1.442;2023-03-14T12:56:35;100088.03;;;10.77;100.00
44934;BME280;30667;43.614;1.442;2023-03-14T13:07:34;100091.84;;;10.76;100.00
44934;BME280;30667;43.614;1.442;2023-03-14T13:15:29;100064.97;;;10.95;100.00
44934;BME280;30667;43.614;1.442;2023-03-14T13:18:01;100054.09;;;11.00;100.00
44934;BME280;30667;43.614;1.442;2023-03-14T13:20:50;100045.94;;;11.05;100.00
44934;BME280;30667;43.614;1.442;2023-03-14T13:23:26;100036.44;;;11.13;100.00
44934;BME280;30667;43.614;1.442;2023-03-14T13:25:52;100031.69;;;11.34;100.00
44934;BME280;30667;43.614;1.442;2023-03-14T13:28:18;100028.69;;;11.70;100.00
44934;BME280;30667;43.614;1.442;2023-03-14T13:30:49;100028.81;;;11.84;100.00
44934;BME280;30667;43.614;1.442;2023-03-14T13:33:18;100041.13;;;11.76;100.00
44934;BME280;30667;43.614;1.442;2023-03-14T13:35:46;100043.56;;;11.72;100.00
44934;BME280;30667;43.614;1.442;2023-03-14T13:38:16;100042.25;;;11.64;100.00
44934;BME280;30667;43.614;1.442;2023-03-14T13:40:44;100051.28;;;11.20;100.00
44934;BME280;30667;43.614;1.442;2023-03-14T13:43:58;100072.47;;;11.08;100.00
44934;BME280;30667;43.614;1.442;2023-03-14T13:46:10;100093.81;;;10.60;100.00
44934;BME280;30667;43.614;1.442;2023-03-14T13:48:44;100109.84;;;9.89;100.00
44934;BME280;30667;43.614;1.442;2023-03-14T13:51:12;100115.22;;;9.53;100.00
44934;BME280;30667;43.614;1.442;2023-03-14T13:53:52;100107.66;;;9.45;100.00
44934;BME280;30667;43.614;1.442;2023-03-14T13:56:23;100116.56;;;9.40;100.00
44934;BME280;30667;43.614;1.442;2023-03-14T13:58:49;100116.03;;;9.38;100.00
44934;BME280;30667;43.614;1.442;2023-03-14T14:01:25;100115.97;;;9.33;100.00
44934;BME280;30667;43.614;1.442;2023-03-14T14:03:53;100121.38;;;9.33;100.00
44934;BME280;30667;43.614;1.442;2023-03-14T14:06:37;100134.34;;;9.36;100.00